James R Moran — WDB8932 — position and weather

sailwx.info

Track history (hours):
 
Tides and Currents Weather Stations Pressure Air Temp Water Temp Dewpoint Dewpoint Depression Visibility Wind Speed Wind Dir Waves Ship Positions

James R Moran

Owner: MORAN TOWING CORPORATION, New Canaan, CT. More information available from US FCC via Universal Licensing System and Coast Guard Vessel Documentation Center.

Last reported at 2018-Aug-16 08:30 UTC. Time now 2018-Aug-16 08:45 UTC.
Position N 39°16' W 076°34'.

Length 26 m; draft 4.3 m.

Type: Tug. MMSI: 366966650.

Date/timePositionNaut miles runAvg speedWind from/ knotsBaromVisibWave heightAir tempDewpointWater temp
2018-Aug-16 08:30N 39°16' W 076°34'0 0.0
2018-Aug-16 08:00N 39°16' W 076°34'0 0.0
2018-Aug-16 07:30N 39°16' W 076°34'0 0.0
2018-Aug-16 07:00N 39°16' W 076°34'0 0.0
2018-Aug-16 06:30N 39°16' W 076°34'0 0.0
2018-Aug-16 06:00N 39°16' W 076°34'0 0.0
2018-Aug-16 05:31N 39°16' W 076°34'0 0.0
2018-Aug-16 05:00N 39°16' W 076°34'0 0.0
2018-Aug-16 04:31N 39°16' W 076°34'0 0.0
2018-Aug-16 04:00N 39°16' W 076°34'1 1.1
2018-Aug-16 03:30N 39°16' W 076°34'0 0.0
2018-Aug-16 03:00N 39°16' W 076°34'1 1.1
2018-Aug-16 02:30N 39°16' W 076°34'0 0.0
2018-Aug-16 02:00N 39°16' W 076°34'1 1.1
2018-Aug-16 01:31N 39°15' W 076°34'0 0.2
2018-Aug-16 01:01N 39°15' W 076°34'1 2.1
2018-Aug-16 00:26N 39°15' W 076°33'1 2.6
2018-Aug-16 00:00N 39°15' W 076°34'0 0.1
2018-Aug-15 23:31N 39°16' W 076°34'0 0.0
2018-Aug-15 23:01N 39°16' W 076°34'0 0.0
2018-Aug-15 22:30N 39°16' W 076°34'2 3.2
2018-Aug-15 22:01N 39°16' W 076°36'1 2.7
2018-Aug-15 21:31N 39°15' W 076°34'1 2.7
2018-Aug-15 21:01N 39°15' W 076°32'1 2.2
2018-Aug-15 20:31N 39°15' W 076°33'1 2.1
2018-Aug-15 20:01N 39°15' W 076°35'1 1.2
2018-Aug-15 19:31N 39°16' W 076°34'0 0.8
2018-Aug-15 19:01N 39°16' W 076°34'0 0.0
2018-Aug-15 18:30N 39°16' W 076°34'0 0.0
2018-Aug-15 18:00N 39°16' W 076°34'0 0.0
2018-Aug-15 17:31N 39°16' W 076°34'0 0.0
2018-Aug-15 17:01N 39°16' W 076°34'0 0.0
2018-Aug-15 16:31N 39°16' W 076°34'0 0.0
2018-Aug-15 16:00N 39°16' W 076°34'0 0.0
2018-Aug-15 15:30N 39°16' W 076°34'0 0.0
2018-Aug-15 15:01N 39°16' W 076°34'0 0.0
2018-Aug-15 14:30N 39°16' W 076°34'0 0.0
2018-Aug-15 14:00N 39°16' W 076°34'0 0.0
2018-Aug-15 13:31N 39°16' W 076°34'0 0.0
2018-Aug-15 13:01N 39°16' W 076°34'0 0.0
2018-Aug-15 12:30N 39°16' W 076°34'0 0.0
2018-Aug-15 12:00N 39°16' W 076°34'0 0.0
2018-Aug-15 11:30N 39°16' W 076°34'0 0.0
2018-Aug-15 11:00N 39°16' W 076°34'0 0.0
2018-Aug-15 10:30N 39°16' W 076°34'0 0.0
2018-Aug-15 10:00N 39°16' W 076°34'1 1.7
2018-Aug-15 09:31N 39°15' W 076°34'2 3.3
2018-Aug-15 08:56N 39°13' W 076°35'1 1.7
2018-Aug-15 08:24N 39°13' W 076°34'1 3.7
2018-Aug-15 08:01N 39°13' W 076°32'1 1.3
2018-Aug-15 07:31N 39°13' W 076°32'0 0.0
2018-Aug-15 07:00N 39°13' W 076°32'2 4.3
2018-Aug-15 06:31N 39°15' W 076°34'0 0.7
2018-Aug-15 06:01N 39°15' W 076°34'2 4.2
2018-Aug-15 05:31N 39°13' W 076°32'3 6.9
2018-Aug-15 05:01N 39°16' W 076°34'0 0.0
2018-Aug-15 04:30N 39°16' W 076°34'0 0.0
2018-Aug-15 04:00N 39°16' W 076°34'0 0.0
2018-Aug-15 03:30N 39°16' W 076°34'0 0.0
2018-Aug-15 02:58N 39°16' W 076°34'0 0.0
2018-Aug-15 02:31N 39°16' W 076°34'0 0.0
2018-Aug-15 02:00N 39°16' W 076°34'0 0.9
2018-Aug-15 01:31N 39°16' W 076°34'0 0.0
2018-Aug-15 01:01N 39°16' W 076°34'0 0.0
2018-Aug-15 00:31N 39°16' W 076°34'0 0.0
2018-Aug-15 00:01N 39°16' W 076°34'0 0.0
2018-Aug-14 23:30N 39°16' W 076°34'0 0.0
2018-Aug-14 23:01N 39°16' W 076°34'0 0.2
2018-Aug-14 22:31N 39°16' W 076°34'2 3.6
2018-Aug-14 22:00N 39°15' W 076°33'2 3.6
2018-Aug-14 21:31N 39°16' W 076°35'1 1.1
2018-Aug-14 21:00N 39°15' W 076°35'0 0.6
2018-Aug-14 20:31N 39°15' W 076°35'1 1.6
2018-Aug-14 20:01N 39°16' W 076°34'0 0.0
2018-Aug-14 19:31N 39°16' W 076°34'0 0.9
2018-Aug-14 19:00N 39°16' W 076°34'0 0.0
2018-Aug-14 18:31N 39°16' W 076°34'0 0.0
2018-Aug-14 18:01N 39°16' W 076°34'0 0.0
2018-Aug-14 17:30N 39°16' W 076°34'0 0.0
2018-Aug-14 17:01N 39°16' W 076°34'0 0.0
2018-Aug-14 16:31N 39°16' W 076°34'0 0.0
2018-Aug-14 16:01N 39°16' W 076°34'0 0.0
2018-Aug-14 15:30N 39°16' W 076°34'0 0.0
2018-Aug-14 15:01N 39°16' W 076°34'0 0.0
2018-Aug-14 14:30N 39°16' W 076°34'0 0.0
2018-Aug-14 14:01N 39°16' W 076°34'0 0.0
2018-Aug-14 13:29N 39°16' W 076°34'0 0.0
2018-Aug-14 13:01N 39°16' W 076°34'0 0.0
2018-Aug-14 12:31N 39°16' W 076°34'0 0.0
2018-Aug-14 12:00N 39°16' W 076°34'0 0.0
2018-Aug-14 11:31N 39°16' W 076°34'0 0.0
2018-Aug-14 11:00N 39°16' W 076°34'0 0.0
2018-Aug-14 10:30N 39°16' W 076°34'0 0.0
2018-Aug-14 10:00N 39°16' W 076°34'0 0.0
2018-Aug-14 09:30N 39°16' W 076°34'1 2.7
2018-Aug-14 09:00N 39°15' W 076°34'0 1.0
2018-Aug-14 08:31N 39°15' W 076°33'1 2.5
2018-Aug-14 08:00N 39°14' W 076°32'0 0.5
2018-Aug-14 07:30N 39°14' W 076°32'2 4.6
2018-Aug-14 07:01N 39°15' W 076°35'0 0.2
2018-Aug-14 06:31N 39°15' W 076°35'1 2.5
2018-Aug-14 06:01N 39°15' W 076°33'1 1.6
2018-Aug-14 05:30N 39°14' W 076°33'2 4.7
2018-Aug-14 05:00N 39°16' W 076°34'0 0.0
2018-Aug-14 04:30N 39°16' W 076°34'0 0.0
2018-Aug-14 04:00N 39°16' W 076°34'0 0.0
2018-Aug-14 03:30N 39°16' W 076°34'0 0.0
2018-Aug-14 03:00N 39°16' W 076°34'0 0.0
2018-Aug-14 02:30N 39°16' W 076°34'0 0.0
2018-Aug-14 02:01N 39°16' W 076°34'0 0.0
2018-Aug-14 01:30N 39°16' W 076°34'0 0.0
2018-Aug-14 01:00N 39°16' W 076°34'0 0.0
2018-Aug-14 00:30N 39°16' W 076°34'0 0.0
2018-Aug-14 00:00N 39°16' W 076°34'0 0.0
2018-Aug-13 23:30N 39°16' W 076°34'0 0.0
2018-Aug-13 23:00N 39°16' W 076°34'0 0.0
2018-Aug-13 22:30N 39°16' W 076°34'0 0.0
2018-Aug-13 22:00N 39°16' W 076°34'0 0.0
2018-Aug-13 21:30N 39°16' W 076°34'0 0.0
2018-Aug-13 21:00N 39°16' W 076°34'0 0.0
2018-Aug-13 20:30N 39°16' W 076°34'0 0.0
2018-Aug-13 20:00N 39°16' W 076°34'0 0.0
2018-Aug-13 19:30N 39°16' W 076°34'0 0.0
2018-Aug-13 19:00N 39°16' W 076°34'0 0.0
2018-Aug-13 18:30N 39°16' W 076°34'0 0.0
2018-Aug-13 18:01N 39°16' W 076°34'0 0.0
2018-Aug-13 17:31N 39°16' W 076°34'0 0.0
2018-Aug-13 17:00N 39°16' W 076°34'0 0.0
2018-Aug-13 16:30N 39°16' W 076°34'0 0.0
2018-Aug-13 16:00N 39°16' W 076°34'0 0.0
2018-Aug-13 15:31N 39°16' W 076°34'0 0.0
2018-Aug-13 15:00N 39°16' W 076°34'0 0.0
2018-Aug-13 14:30N 39°16' W 076°34'0 0.0
2018-Aug-13 14:00N 39°16' W 076°34'0 0.0
2018-Aug-13 13:30N 39°16' W 076°34'0 0.0
2018-Aug-13 13:00N 39°16' W 076°34'0 0.0
2018-Aug-13 12:30N 39°16' W 076°34'1 2.1
2018-Aug-13 12:00N 39°15' W 076°34'1 1.4
2018-Aug-13 11:31N 39°15' W 076°33'1 1.2
2018-Aug-13 11:00N 39°15' W 076°32'1 2.2
2018-Aug-13 10:30N 39°14' W 076°33'1 1.7
2018-Aug-13 10:00N 39°14' W 076°32'1 1.5
2018-Aug-13 09:30N 39°14' W 076°32'1 1.8
2018-Aug-13 09:00N 39°13' W 076°32'0 0.1
2018-Aug-13 08:30N 39°13' W 076°32'2 4.1
2018-Aug-13 08:00N 39°15' W 076°33'1 1.7
2018-Aug-13 07:30N 39°14' W 076°33'1 2.8
2018-Aug-13 07:00N 39°13' W 076°32'0 0.9
2018-Aug-13 06:30N 39°13' W 076°32'0 0.0
2018-Aug-13 06:00N 39°13' W 076°32'0 0.0
2018-Aug-13 05:30N 39°13' W 076°32'0 0.0
2018-Aug-13 05:01N 39°13' W 076°32'0 0.0
2018-Aug-13 04:30N 39°13' W 076°32'0 0.0
2018-Aug-13 04:00N 39°13' W 076°32'0 0.0
2018-Aug-13 03:30N 39°13' W 076°32'2 3.8
2018-Aug-13 03:00N 39°13' W 076°35'1 2.4
2018-Aug-13 02:30N 39°13' W 076°33'1 1.6
2018-Aug-13 02:00N 39°14' W 076°32'1 1.3
2018-Aug-13 01:30N 39°14' W 076°32'0 0.0
2018-Aug-13 01:01N 39°14' W 076°32'1 1.2
2018-Aug-13 00:30N 39°15' W 076°33'1 1.6
2018-Aug-13 00:01N 39°15' W 076°33'1 1.0
2018-Aug-12 23:30N 39°16' W 076°34'1 1.4
2018-Aug-12 23:00N 39°15' W 076°34'2 4.2
2018-Aug-12 22:30N 39°13' W 076°32'3 5.2
2018-Aug-12 22:00N 39°15' W 076°34'0 0.0
2018-Aug-12 21:30N 39°15' W 076°34'0 0.0
2018-Aug-12 21:00N 39°15' W 076°34'0 0.0
2018-Aug-12 20:30N 39°15' W 076°34'0 0.0
2018-Aug-12 20:01N 39°15' W 076°34'0 0.3
2018-Aug-12 19:30N 39°16' W 076°34'0 0.1
2018-Aug-12 19:00N 39°15' W 076°34'0 0.9
2018-Aug-12 18:30N 39°16' W 076°34'0 0.0
2018-Aug-12 18:00N 39°16' W 076°34'0 0.0
2018-Aug-12 17:30N 39°16' W 076°34'0 0.0
2018-Aug-12 17:00N 39°16' W 076°34'0 0.0
2018-Aug-12 16:30N 39°16' W 076°34'0 0.0
2018-Aug-12 16:00N 39°16' W 076°34'0 0.1
2018-Aug-12 15:31N 39°16' W 076°34'0 0.0
2018-Aug-12 15:00N 39°16' W 076°34'0 0.0
2018-Aug-12 14:30N 39°16' W 076°34'0 0.0
2018-Aug-12 14:01N 39°16' W 076°34'0 0.0
2018-Aug-12 13:30N 39°16' W 076°34'0 0.0
2018-Aug-12 13:00N 39°16' W 076°34'0 0.0
2018-Aug-12 12:31N 39°16' W 076°34'0 0.0
2018-Aug-12 12:00N 39°16' W 076°34'0 0.0
2018-Aug-12 11:30N 39°16' W 076°34'0 0.0
2018-Aug-12 11:00N 39°16' W 076°34'0 0.0
2018-Aug-12 10:30N 39°16' W 076°34'0 0.0
2018-Aug-12 10:00N 39°16' W 076°34'0 0.0
2018-Aug-12 09:30N 39°16' W 076°34'0 0.0
2018-Aug-12 09:00N 39°16' W 076°34'0 0.0
2018-Aug-12 08:30N 39°16' W 076°34'0 0.0
2018-Aug-12 08:00N 39°16' W 076°34'0 0.0
2018-Aug-12 07:30N 39°16' W 076°34'0 0.0
2018-Aug-12 07:00N 39°16' W 076°34'0 0.0
2018-Aug-12 06:29N 39°16' W 076°34'0 0.0
2018-Aug-12 05:58N 39°16' W 076°34'0 0.0
2018-Aug-12 05:30N 39°16' W 076°34'0 0.0
2018-Aug-12 05:00N 39°16' W 076°34'0 0.0
2018-Aug-12 04:30N 39°16' W 076°34'1 1.6
2018-Aug-12 04:00N 39°15' W 076°34'1 1.3
2018-Aug-12 03:29N 39°15' W 076°33'0 0.1
2018-Aug-12 03:00N 39°15' W 076°33'0 0.1
2018-Aug-12 02:30N 39°15' W 076°33'1 0.9
2018-Aug-12 00:55N 39°16' W 076°34'0 0.0
2018-Aug-11 23:57N 39°16' W 076°34'0 0.0
2018-Aug-11 23:30N 39°16' W 076°34'0 0.0
2018-Aug-11 22:38N 39°16' W 076°34'1 6.7
2018-Aug-11 22:30N 39°15' W 076°34'1 1.8
2018-Aug-11 22:00N 39°15' W 076°33'1 2.7
2018-Aug-11 21:30N 39°16' W 076°34'0 0.8
2018-Aug-11 21:01N 39°16' W 076°34'0 0.0
2018-Aug-11 20:30N 39°16' W 076°34'0 0.0
2018-Aug-11 20:00N 39°16' W 076°34'0 0.0
2018-Aug-11 19:31N 39°16' W 076°34'0 0.0
2018-Aug-11 19:00N 39°16' W 076°34'0 0.0
2018-Aug-11 18:31N 39°16' W 076°34'0 0.0
2018-Aug-11 18:01N 39°16' W 076°34'0 0.0
2018-Aug-11 17:31N 39°16' W 076°34'0 0.0
2018-Aug-11 17:01N 39°16' W 076°34'0 0.0
2018-Aug-11 16:30N 39°16' W 076°34'0 0.0
2018-Aug-11 16:00N 39°16' W 076°34'0 0.0
2018-Aug-11 15:31N 39°16' W 076°34'0 0.0
2018-Aug-11 15:00N 39°16' W 076°34'0 0.0
2018-Aug-11 14:31N 39°16' W 076°34'0 0.0
2018-Aug-11 14:00N 39°16' W 076°34'0 0.0
2018-Aug-11 13:29N 39°16' W 076°34'0 0.0
2018-Aug-11 12:59N 39°16' W 076°34'0 0.0
2018-Aug-11 12:30N 39°16' W 076°34'0 0.0
2018-Aug-11 12:00N 39°16' W 076°34'1 1.1
2018-Aug-11 11:30N 39°15' W 076°34'1 2.6
2018-Aug-11 11:00N 39°15' W 076°33'0 0.5
2018-Aug-11 10:30N 39°15' W 076°32'0 0.0
2018-Aug-11 10:00N 39°15' W 076°32'1 2.3
2018-Aug-11 09:30N 39°15' W 076°33'1 2.0
2018-Aug-11 09:00N 39°14' W 076°33'1 2.0
2018-Aug-11 08:30N 39°14' W 076°32'0 0.0
2018-Aug-11 08:00N 39°14' W 076°32'0 0.6
2018-Aug-11 07:30N 39°15' W 076°32'1 1.4
2018-Aug-11 07:00N 39°14' W 076°32'1 1.1
2018-Aug-11 06:30N 39°14' W 076°32'1 1.3
2018-Aug-11 06:00N 39°14' W 076°33'2 4.0
2018-Aug-11 05:30N 39°15' W 076°35'2 3.8
2018-Aug-11 05:00N 39°13' W 076°34'1 2.0
2018-Aug-11 04:25N 39°13' W 076°35'0 0.0
2018-Aug-11 03:59N 39°13' W 076°35'2 5.2
2018-Aug-11 03:30N 39°15' W 076°34'1 1.9
2018-Aug-11 02:59N 39°16' W 076°34'0 0.0
2018-Aug-11 02:30N 39°16' W 076°34'0 0.0
2018-Aug-11 01:59N 39°16' W 076°34'0 0.0
2018-Aug-11 01:29N 39°16' W 076°34'0 0.0
2018-Aug-11 01:00N 39°16' W 076°34'0 0.0
2018-Aug-11 00:30N 39°16' W 076°34'0 0.0
2018-Aug-11 00:00N 39°16' W 076°34'0 0.0
2018-Aug-10 23:28N 39°16' W 076°34'0 0.0
2018-Aug-10 23:00N 39°16' W 076°34'0 0.0
2018-Aug-10 22:30N 39°16' W 076°34'0 0.0
2018-Aug-10 22:00N 39°16' W 076°34'0 0.0
2018-Aug-10 21:30N 39°16' W 076°34'0 0.0
2018-Aug-10 21:00N 39°16' W 076°34'0 0.0
2018-Aug-10 20:30N 39°16' W 076°34'1 2.7
2018-Aug-10 20:00N 39°15' W 076°34'0 0.1
2018-Aug-10 19:31N 39°15' W 076°34'1 1.4
2018-Aug-10 19:00N 39°15' W 076°34'0 0.7
2018-Aug-10 18:30N 39°16' W 076°34'1 1.5
2018-Aug-10 18:00N 39°15' W 076°34'2 4.2
2018-Aug-10 17:30N 39°13' W 076°32'1 2.8
2018-Aug-10 17:00N 39°14' W 076°33'2 3.8
2018-Aug-10 16:30N 39°16' W 076°34'0 0.0
2018-Aug-10 16:00N 39°16' W 076°34'0 0.0
2018-Aug-10 15:30N 39°16' W 076°34'1 1.0
2018-Aug-10 15:01N 39°15' W 076°34'0 0.2
2018-Aug-10 14:30N 39°16' W 076°34'0 0.0
2018-Aug-10 14:00N 39°16' W 076°34'0 0.9
2018-Aug-10 13:30N 39°16' W 076°34'0 0.0
2018-Aug-10 12:59N 39°16' W 076°34'0 0.0
2018-Aug-10 12:30N 39°16' W 076°34'0 0.0
2018-Aug-10 12:00N 39°16' W 076°34'0 0.0
2018-Aug-10 11:30N 39°16' W 076°34'0 0.0
2018-Aug-10 11:00N 39°16' W 076°34'0 0.0
2018-Aug-10 10:30N 39°16' W 076°34'1 2.5
2018-Aug-10 10:00N 39°15' W 076°33'0 0.9
2018-Aug-10 09:30N 39°15' W 076°33'2 3.6
2018-Aug-10 09:00N 39°13' W 076°32'2 4.9
2018-Aug-10 08:31N 39°15' W 076°34'1 2.0
2018-Aug-10 08:00N 39°16' W 076°34'0 0.0
2018-Aug-10 07:30N 39°16' W 076°34'0 0.0
2018-Aug-10 07:00N 39°16' W 076°34'0 0.0
2018-Aug-10 06:30N 39°16' W 076°34'0 0.0
2018-Aug-10 06:01N 39°16' W 076°34'0 0.0
2018-Aug-10 05:29N 39°16' W 076°34'0 0.0
2018-Aug-10 05:00N 39°16' W 076°34'0 0.0
2018-Aug-10 04:30N 39°16' W 076°34'0 0.0
2018-Aug-10 04:00N 39°16' W 076°34'0 0.0
2018-Aug-10 03:31N 39°16' W 076°34'0 0.0
2018-Aug-10 03:00N 39°16' W 076°34'0 0.0
2018-Aug-10 02:30N 39°16' W 076°34'0 0.0
2018-Aug-10 02:00N 39°16' W 076°34'0 0.0
2018-Aug-10 01:30N 39°16' W 076°34'0 0.0
2018-Aug-10 01:00N 39°16' W 076°34'0 0.0
2018-Aug-10 00:30N 39°16' W 076°34'0 0.0
2018-Aug-10 00:01N 39°16' W 076°34'0 0.0
2018-Aug-09 23:30N 39°16' W 076°34'0 0.0
2018-Aug-09 22:59N 39°16' W 076°34'0 0.0
2018-Aug-09 22:31N 39°16' W 076°34'0 0.0
2018-Aug-09 22:00N 39°16' W 076°34'0 0.0
2018-Aug-09 21:29N 39°16' W 076°34'0 0.0
2018-Aug-09 21:00N 39°16' W 076°34'0 0.0
2018-Aug-09 20:30N 39°16' W 076°34'0 0.0
2018-Aug-09 20:01N 39°16' W 076°34'0 0.0
2018-Aug-09 19:31N 39°16' W 076°34'0 0.0
2018-Aug-09 19:00N 39°16' W 076°34'0 0.0
2018-Aug-09 18:31N 39°16' W 076°34'0 0.0
2018-Aug-09 18:00N 39°16' W 076°34'0 0.0
2018-Aug-09 17:30N 39°16' W 076°34'0 0.0
2018-Aug-09 17:01N 39°16' W 076°34'0 0.0
2018-Aug-09 16:30N 39°16' W 076°34'0 0.0
2018-Aug-09 16:00N 39°16' W 076°34'0 0.0
2018-Aug-09 15:30N 39°16' W 076°34'0 0.0
2018-Aug-09 15:00N 39°16' W 076°34'0 0.0
2018-Aug-09 14:30N 39°16' W 076°34'0 0.0
2018-Aug-09 14:00N 39°16' W 076°34'0 0.0
2018-Aug-09 13:27N 39°16' W 076°34'2 5.3
2018-Aug-09 13:00N 39°14' W 076°32'2 3.3
2018-Aug-09 12:30N 39°15' W 076°34'1 1.6
2018-Aug-09 12:00N 39°16' W 076°34'0 0.0
2018-Aug-09 11:30N 39°16' W 076°34'0 0.0
2018-Aug-09 10:28N 39°16' W 076°34'0 0.0
2018-Aug-09 09:56N 39°16' W 076°34'0 0.0
2018-Aug-09 09:30N 39°16' W 076°34'0 0.3
2018-Aug-09 09:00N 39°16' W 076°34'2 4.1
2018-Aug-09 08:30N 39°15' W 076°32'1 2.7
2018-Aug-09 08:00N 39°13' W 076°32'1 2.3
2018-Aug-09 07:30N 39°14' W 076°32'0 0.0
2018-Aug-09 07:00N 39°14' W 076°32'0 0.0
2018-Aug-09 06:30N 39°14' W 076°32'0 0.0
2018-Aug-09 06:00N 39°14' W 076°32'0 0.0
2018-Aug-09 05:30N 39°14' W 076°32'0 0.0
2018-Aug-09 05:00N 39°14' W 076°32'0 0.0
2018-Aug-09 04:30N 39°14' W 076°32'0 0.0
2018-Aug-09 04:00N 39°14' W 076°32'1 1.6
2018-Aug-09 03:30N 39°15' W 076°33'1 1.8
2018-Aug-09 03:00N 39°15' W 076°34'1 2.0
2018-Aug-09 02:31N 39°14' W 076°33'0 0.6
2018-Aug-09 02:00N 39°14' W 076°33'2 4.8
2018-Aug-09 01:30N 39°16' W 076°34'0 0.0
2018-Aug-09 00:51N 39°16' W 076°34'0 0.0
2018-Aug-09 00:30N 39°16' W 076°34'0 0.0
2018-Aug-08 23:59N 39°16' W 076°34'0 0.0
2018-Aug-08 23:26N 39°16' W 076°34'0 0.0
2018-Aug-08 23:00N 39°16' W 076°34'0 0.0
2018-Aug-08 22:30N 39°16' W 076°34'0 0.0
2018-Aug-08 22:00N 39°16' W 076°34'0 0.0
2018-Aug-08 21:30N 39°16' W 076°34'2 3.4
2018-Aug-08 21:00N 39°15' W 076°32'1 1.1
2018-Aug-08 20:30N 39°15' W 076°32'1 2.4
2018-Aug-08 20:00N 39°15' W 076°34'1 2.1
2018-Aug-08 19:30N 39°16' W 076°34'0 0.6
2018-Aug-08 18:56N 39°16' W 076°34'0 0.0
2018-Aug-08 18:30N 39°16' W 076°34'0 0.0
2018-Aug-08 18:00N 39°16' W 076°34'0 0.0
2018-Aug-08 17:30N 39°16' W 076°34'0 0.0
2018-Aug-08 16:59N 39°16' W 076°34'0 0.0
2018-Aug-08 16:30N 39°16' W 076°34'0 0.0
2018-Aug-08 16:00N 39°16' W 076°34'0 0.0
2018-Aug-08 15:30N 39°16' W 076°34'0 0.0
2018-Aug-08 15:00N 39°16' W 076°34'0 0.0
2018-Aug-08 14:30N 39°16' W 076°34'0 0.0
2018-Aug-08 14:00N 39°16' W 076°34'0 0.0
2018-Aug-08 13:30N 39°16' W 076°34'0 0.0
2018-Aug-08 13:00N 39°16' W 076°34'0 0.0
2018-Aug-08 12:30N 39°16' W 076°34'0 0.0
2018-Aug-08 12:00N 39°16' W 076°34'0 0.0
2018-Aug-08 11:30N 39°16' W 076°34'0 0.0
2018-Aug-08 11:00N 39°16' W 076°34'0 0.0
2018-Aug-08 10:31N 39°16' W 076°34'0 0.0
2018-Aug-08 10:00N 39°16' W 076°34'0 0.0
2018-Aug-08 09:30N 39°16' W 076°34'0 0.0
2018-Aug-08 09:00N 39°16' W 076°34'1 2.7
2018-Aug-08 08:30N 39°15' W 076°34'0 0.8
2018-Aug-08 08:00N 39°15' W 076°33'1 1.2
2018-Aug-08 07:30N 39°15' W 076°34'1 1.5
2018-Aug-08 07:00N 39°15' W 076°33'0 0.1
2018-Aug-08 06:30N 39°15' W 076°33'1 2.1
2018-Aug-08 06:00N 39°16' W 076°34'1 1.7
2018-Aug-08 05:30N 39°15' W 076°34'2 3.9
2018-Aug-08 05:00N 39°13' W 076°32'3 5.3
2018-Aug-08 04:30N 39°15' W 076°34'0 0.0
2018-Aug-08 04:00N 39°15' W 076°34'0 0.0
2018-Aug-08 03:30N 39°15' W 076°34'0 0.0
2018-Aug-08 03:00N 39°15' W 076°34'0 0.0
2018-Aug-08 02:30N 39°15' W 076°34'0 0.3
2018-Aug-08 02:00N 39°15' W 076°34'0 0.5
2018-Aug-08 01:30N 39°16' W 076°34'0 0.9
2018-Aug-08 01:00N 39°16' W 076°34'0 0.0
2018-Aug-08 00:20N 39°16' W 076°34'0 0.0
2018-Aug-08 00:00N 39°16' W 076°34'0 0.0
2018-Aug-07 23:30N 39°16' W 076°34'0 0.0
2018-Aug-07 23:00N 39°16' W 076°34'1 1.8
2018-Aug-07 22:30N 39°15' W 076°34'1 1.1
2018-Aug-07 22:00N 39°15' W 076°33'1 2.4
2018-Aug-07 21:30N 39°16' W 076°34'0 0.0
2018-Aug-07 21:00N 39°16' W 076°34'0 0.0
2018-Aug-07 20:31N 39°16' W 076°34'0 0.0
2018-Aug-07 20:01N 39°16' W 076°34'0 0.0
2018-Aug-07 19:31N 39°16' W 076°34'0 0.0
2018-Aug-07 19:00N 39°16' W 076°34'0 0.0
2018-Aug-07 18:31N 39°16' W 076°34'0 0.0
2018-Aug-07 18:01N 39°16' W 076°34'0 0.0
2018-Aug-07 17:30N 39°16' W 076°34'2 3.0
2018-Aug-07 17:00N 39°15' W 076°33'1 1.5
2018-Aug-07 16:30N 39°15' W 076°34'1 1.9
2018-Aug-07 16:01N 39°16' W 076°34'0 0.0
2018-Aug-07 15:31N 39°16' W 076°34'0 0.0
2018-Aug-07 15:00N 39°16' W 076°34'1 1.7
2018-Aug-07 14:30N 39°15' W 076°34'0 0.7
2018-Aug-07 14:01N 39°16' W 076°33'0 0.9
2018-Aug-07 13:31N 39°15' W 076°34'2 4.1
2018-Aug-07 13:00N 39°14' W 076°32'1 2.5
2018-Aug-07 12:31N 39°15' W 076°32'0 0.0
2018-Aug-07 12:00N 39°15' W 076°32'0 0.0
2018-Aug-07 11:30N 39°15' W 076°32'0 0.0
2018-Aug-07 11:01N 39°15' W 076°32'0 0.0
2018-Aug-07 10:30N 39°15' W 076°32'0 0.0
2018-Aug-07 10:00N 39°15' W 076°32'1 1.3
2018-Aug-07 09:30N 39°15' W 076°33'0 0.0
2018-Aug-07 09:00N 39°15' W 076°33'1 1.9
2018-Aug-07 08:31N 39°14' W 076°33'1 2.9
2018-Aug-07 08:01N 39°13' W 076°32'2 3.2
2018-Aug-07 07:30N 39°15' W 076°33'0 0.1
2018-Aug-07 07:01N 39°14' W 076°33'1 1.8
2018-Aug-07 06:30N 39°14' W 076°32'1 1.6
2018-Aug-07 06:01N 39°14' W 076°32'0 0.0
2018-Aug-07 05:30N 39°14' W 076°32'0 0.0
2018-Aug-07 05:00N 39°14' W 076°32'0 0.0
2018-Aug-07 04:30N 39°14' W 076°32'0 0.2
2018-Aug-07 04:01N 39°14' W 076°32'0 0.6
2018-Aug-07 03:31N 39°15' W 076°32'2 3.7
2018-Aug-07 02:59N 39°16' W 076°34'0 0.0
2018-Aug-07 02:30N 39°16' W 076°34'0 0.0
2018-Aug-07 01:59N 39°16' W 076°34'0 0.0
2018-Aug-07 01:30N 39°16' W 076°34'0 0.0
2018-Aug-07 01:01N 39°16' W 076°34'0 0.0
2018-Aug-07 00:30N 39°16' W 076°34'0 0.0
2018-Aug-07 00:00N 39°16' W 076°34'0 0.0
2018-Aug-06 23:30N 39°16' W 076°34'0 0.0
2018-Aug-06 23:01N 39°16' W 076°34'0 0.0
2018-Aug-06 22:31N 39°16' W 076°34'0 0.0
2018-Aug-06 22:00N 39°16' W 076°34'0 0.0
2018-Aug-06 21:30N 39°16' W 076°34'0 0.0
2018-Aug-06 21:01N 39°16' W 076°34'0 0.0
2018-Aug-06 20:30N 39°16' W 076°34'1 1.1
2018-Aug-06 20:01N 39°15' W 076°34'1 1.7
2018-Aug-06 19:31N 39°15' W 076°34'1 2.7
2018-Aug-06 19:01N 39°16' W 076°34'0 0.0
2018-Aug-06 18:30N 39°16' W 076°34'0 0.0
2018-Aug-06 18:01N 39°16' W 076°34'0 0.0
2018-Aug-06 17:30N 39°16' W 076°34'0 0.0
2018-Aug-06 17:01N 39°16' W 076°34'0 0.0
2018-Aug-06 16:31N 39°16' W 076°34'0 0.0
2018-Aug-06 16:01N 39°16' W 076°34'0 0.0
2018-Aug-06 15:30N 39°16' W 076°34'0 0.0
2018-Aug-06 15:00N 39°16' W 076°34'0 0.0
2018-Aug-06 14:30N 39°16' W 076°34'0 0.0
2018-Aug-06 14:01N 39°16' W 076°34'0 0.0
2018-Aug-06 13:31N 39°16' W 076°34'0 0.0
2018-Aug-06 13:01N 39°16' W 076°34'0 0.0
2018-Aug-06 12:31N 39°16' W 076°34'0 0.0
2018-Aug-06 12:01N 39°16' W 076°34'0 0.0
2018-Aug-06 11:31N 39°16' W 076°34'1 3.0
2018-Aug-06 11:01N 39°15' W 076°33'0 0.8
2018-Aug-06 10:31N 39°15' W 076°32'1 2.4
2018-Aug-06 10:01N 39°14' W 076°32'1 1.0
2018-Aug-06 09:31N 39°14' W 076°32'1 1.4
2018-Aug-06 09:01N 39°13' W 076°32'  
Track history (hours):
 
Tides and Currents Weather Stations Pressure Air Temp Water Temp Dewpoint Dewpoint Depression Visibility Wind Speed Wind Dir Waves Ship Positions

James R Moran

Owner: MORAN TOWING CORPORATION, New Canaan, CT. More information available from US FCC via Universal Licensing System and Coast Guard Vessel Documentation Center.

Last reported at 2018-Aug-16 08:30 UTC. Time now 2018-Aug-16 08:45 UTC.
Position N 39°16' W 076°34'.

Length 26 m; draft 4.3 m.

Type: Tug. MMSI: 366966650.

Date/timePositionNaut miles runAvg speedWind from/ knotsBaromVisibWave heightAir tempDewpointWater temp
2018-Aug-16 08:30N 39°16' W 076°34'0 0.0
2018-Aug-16 08:00N 39°16' W 076°34'0 0.0
2018-Aug-16 07:30N 39°16' W 076°34'0 0.0
2018-Aug-16 07:00N 39°16' W 076°34'0 0.0
2018-Aug-16 06:30N 39°16' W 076°34'0 0.0
2018-Aug-16 06:00N 39°16' W 076°34'0 0.0
2018-Aug-16 05:31N 39°16' W 076°34'0 0.0
2018-Aug-16 05:00N 39°16' W 076°34'0 0.0
2018-Aug-16 04:31N 39°16' W 076°34'0 0.0
2018-Aug-16 04:00N 39°16' W 076°34'1 1.1
2018-Aug-16 03:30N 39°16' W 076°34'0 0.0
2018-Aug-16 03:00N 39°16' W 076°34'1 1.1
2018-Aug-16 02:30N 39°16' W 076°34'0 0.0
2018-Aug-16 02:00N 39°16' W 076°34'1 1.1
2018-Aug-16 01:31N 39°15' W 076°34'0 0.2
2018-Aug-16 01:01N 39°15' W 076°34'1 2.1
2018-Aug-16 00:26N 39°15' W 076°33'1 2.6
2018-Aug-16 00:00N 39°15' W 076°34'0 0.1
2018-Aug-15 23:31N 39°16' W 076°34'0 0.0
2018-Aug-15 23:01N 39°16' W 076°34'0 0.0
2018-Aug-15 22:30N 39°16' W 076°34'2 3.2
2018-Aug-15 22:01N 39°16' W 076°36'1 2.7
2018-Aug-15 21:31N 39°15' W 076°34'1 2.7
2018-Aug-15 21:01N 39°15' W 076°32'1 2.2
2018-Aug-15 20:31N 39°15' W 076°33'1 2.1
2018-Aug-15 20:01N 39°15' W 076°35'1 1.2
2018-Aug-15 19:31N 39°16' W 076°34'0 0.8
2018-Aug-15 19:01N 39°16' W 076°34'0 0.0
2018-Aug-15 18:30N 39°16' W 076°34'0 0.0
2018-Aug-15 18:00N 39°16' W 076°34'0 0.0
2018-Aug-15 17:31N 39°16' W 076°34'0 0.0
2018-Aug-15 17:01N 39°16' W 076°34'0 0.0
2018-Aug-15 16:31N 39°16' W 076°34'0 0.0
2018-Aug-15 16:00N 39°16' W 076°34'0 0.0
2018-Aug-15 15:30N 39°16' W 076°34'0 0.0
2018-Aug-15 15:01N 39°16' W 076°34'0 0.0
2018-Aug-15 14:30N 39°16' W 076°34'0 0.0
2018-Aug-15 14:00N 39°16' W 076°34'0 0.0
2018-Aug-15 13:31N 39°16' W 076°34'0 0.0
2018-Aug-15 13:01N 39°16' W 076°34'0 0.0
2018-Aug-15 12:30N 39°16' W 076°34'0 0.0
2018-Aug-15 12:00N 39°16' W 076°34'0 0.0
2018-Aug-15 11:30N 39°16' W 076°34'0 0.0
2018-Aug-15 11:00N 39°16' W 076°34'0 0.0
2018-Aug-15 10:30N 39°16' W 076°34'0 0.0
2018-Aug-15 10:00N 39°16' W 076°34'1 1.7
2018-Aug-15 09:31N 39°15' W 076°34'2 3.3
2018-Aug-15 08:56N 39°13' W 076°35'1 1.7
2018-Aug-15 08:24N 39°13' W 076°34'1 3.7
2018-Aug-15 08:01N 39°13' W 076°32'1 1.3
2018-Aug-15 07:31N 39°13' W 076°32'0 0.0
2018-Aug-15 07:00N 39°13' W 076°32'2 4.3
2018-Aug-15 06:31N 39°15' W 076°34'0 0.7
2018-Aug-15 06:01N 39°15' W 076°34'2 4.2
2018-Aug-15 05:31N 39°13' W 076°32'3 6.9
2018-Aug-15 05:01N 39°16' W 076°34'0 0.0
2018-Aug-15 04:30N 39°16' W 076°34'0 0.0
2018-Aug-15 04:00N 39°16' W 076°34'0 0.0
2018-Aug-15 03:30N 39°16' W 076°34'0 0.0
2018-Aug-15 02:58N 39°16' W 076°34'0 0.0
2018-Aug-15 02:31N 39°16' W 076°34'0 0.0
2018-Aug-15 02:00N 39°16' W 076°34'0 0.9
2018-Aug-15 01:31N 39°16' W 076°34'0 0.0
2018-Aug-15 01:01N 39°16' W 076°34'0 0.0
2018-Aug-15 00:31N 39°16' W 076°34'0 0.0
2018-Aug-15 00:01N 39°16' W 076°34'0 0.0
2018-Aug-14 23:30N 39°16' W 076°34'0 0.0
2018-Aug-14 23:01N 39°16' W 076°34'0 0.2
2018-Aug-14 22:31N 39°16' W 076°34'2 3.6
2018-Aug-14 22:00N 39°15' W 076°33'2 3.6
2018-Aug-14 21:31N 39°16' W 076°35'1 1.1
2018-Aug-14 21:00N 39°15' W 076°35'0 0.6
2018-Aug-14 20:31N 39°15' W 076°35'1 1.6
2018-Aug-14 20:01N 39°16' W 076°34'0 0.0
2018-Aug-14 19:31N 39°16' W 076°34'0 0.9
2018-Aug-14 19:00N 39°16' W 076°34'0 0.0
2018-Aug-14 18:31N 39°16' W 076°34'0 0.0
2018-Aug-14 18:01N 39°16' W 076°34'0 0.0
2018-Aug-14 17:30N 39°16' W 076°34'0 0.0
2018-Aug-14 17:01N 39°16' W 076°34'0 0.0
2018-Aug-14 16:31N 39°16' W 076°34'0 0.0
2018-Aug-14 16:01N 39°16' W 076°34'0 0.0
2018-Aug-14 15:30N 39°16' W 076°34'0 0.0
2018-Aug-14 15:01N 39°16' W 076°34'0 0.0
2018-Aug-14 14:30N 39°16' W 076°34'0 0.0
2018-Aug-14 14:01N 39°16' W 076°34'0 0.0
2018-Aug-14 13:29N 39°16' W 076°34'0 0.0
2018-Aug-14 13:01N 39°16' W 076°34'0 0.0
2018-Aug-14 12:31N 39°16' W 076°34'0 0.0
2018-Aug-14 12:00N 39°16' W 076°34'0 0.0
2018-Aug-14 11:31N 39°16' W 076°34'0 0.0
2018-Aug-14 11:00N 39°16' W 076°34'0 0.0
2018-Aug-14 10:30N 39°16' W 076°34'0 0.0
2018-Aug-14 10:00N 39°16' W 076°34'0 0.0
2018-Aug-14 09:30N 39°16' W 076°34'1 2.7
2018-Aug-14 09:00N 39°15' W 076°34'0 1.0
2018-Aug-14 08:31N 39°15' W 076°33'1 2.5
2018-Aug-14 08:00N 39°14' W 076°32'0 0.5
2018-Aug-14 07:30N 39°14' W 076°32'2 4.6
2018-Aug-14 07:01N 39°15' W 076°35'0 0.2
2018-Aug-14 06:31N 39°15' W 076°35'1 2.5
2018-Aug-14 06:01N 39°15' W 076°33'1 1.6
2018-Aug-14 05:30N 39°14' W 076°33'2 4.7
2018-Aug-14 05:00N 39°16' W 076°34'0 0.0
2018-Aug-14 04:30N 39°16' W 076°34'0 0.0
2018-Aug-14 04:00N 39°16' W 076°34'0 0.0
2018-Aug-14 03:30N 39°16' W 076°34'0 0.0
2018-Aug-14 03:00N 39°16' W 076°34'0 0.0
2018-Aug-14 02:30N 39°16' W 076°34'0 0.0
2018-Aug-14 02:01N 39°16' W 076°34'0 0.0
2018-Aug-14 01:30N 39°16' W 076°34'0 0.0
2018-Aug-14 01:00N 39°16' W 076°34'0 0.0
2018-Aug-14 00:30N 39°16' W 076°34'0 0.0
2018-Aug-14 00:00N 39°16' W 076°34'0 0.0
2018-Aug-13 23:30N 39°16' W 076°34'0 0.0
2018-Aug-13 23:00N 39°16' W 076°34'0 0.0
2018-Aug-13 22:30N 39°16' W 076°34'0 0.0
2018-Aug-13 22:00N 39°16' W 076°34'0 0.0
2018-Aug-13 21:30N 39°16' W 076°34'0 0.0
2018-Aug-13 21:00N 39°16' W 076°34'0 0.0
2018-Aug-13 20:30N 39°16' W 076°34'0 0.0
2018-Aug-13 20:00N 39°16' W 076°34'0 0.0
2018-Aug-13 19:30N 39°16' W 076°34'0 0.0
2018-Aug-13 19:00N 39°16' W 076°34'0 0.0
2018-Aug-13 18:30N 39°16' W 076°34'0 0.0
2018-Aug-13 18:01N 39°16' W 076°34'0 0.0
2018-Aug-13 17:31N 39°16' W 076°34'0 0.0
2018-Aug-13 17:00N 39°16' W 076°34'0 0.0
2018-Aug-13 16:30N 39°16' W 076°34'0 0.0
2018-Aug-13 16:00N 39°16' W 076°34'0 0.0
2018-Aug-13 15:31N 39°16' W 076°34'0 0.0
2018-Aug-13 15:00N 39°16' W 076°34'0 0.0
2018-Aug-13 14:30N 39°16' W 076°34'0 0.0
2018-Aug-13 14:00N 39°16' W 076°34'0 0.0
2018-Aug-13 13:30N 39°16' W 076°34'0 0.0
2018-Aug-13 13:00N 39°16' W 076°34'0 0.0
2018-Aug-13 12:30N 39°16' W 076°34'1 2.1
2018-Aug-13 12:00N 39°15' W 076°34'1 1.4
2018-Aug-13 11:31N 39°15' W 076°33'1 1.2
2018-Aug-13 11:00N 39°15' W 076°32'1 2.2
2018-Aug-13 10:30N 39°14' W 076°33'1 1.7
2018-Aug-13 10:00N 39°14' W 076°32'1 1.5
2018-Aug-13 09:30N 39°14' W 076°32'1 1.8
2018-Aug-13 09:00N 39°13' W 076°32'0 0.1
2018-Aug-13 08:30N 39°13' W 076°32'2 4.1
2018-Aug-13 08:00N 39°15' W 076°33'1 1.7
2018-Aug-13 07:30N 39°14' W 076°33'1 2.8
2018-Aug-13 07:00N 39°13' W 076°32'0 0.9
2018-Aug-13 06:30N 39°13' W 076°32'0 0.0
2018-Aug-13 06:00N 39°13' W 076°32'0 0.0
2018-Aug-13 05:30N 39°13' W 076°32'0 0.0
2018-Aug-13 05:01N 39°13' W 076°32'0 0.0
2018-Aug-13 04:30N 39°13' W 076°32'0 0.0
2018-Aug-13 04:00N 39°13' W 076°32'0 0.0
2018-Aug-13 03:30N 39°13' W 076°32'2 3.8
2018-Aug-13 03:00N 39°13' W 076°35'1 2.4
2018-Aug-13 02:30N 39°13' W 076°33'1 1.6
2018-Aug-13 02:00N 39°14' W 076°32'1 1.3
2018-Aug-13 01:30N 39°14' W 076°32'0 0.0
2018-Aug-13 01:01N 39°14' W 076°32'1 1.2
2018-Aug-13 00:30N 39°15' W 076°33'1 1.6
2018-Aug-13 00:01N 39°15' W 076°33'1 1.0
2018-Aug-12 23:30N 39°16' W 076°34'1 1.4
2018-Aug-12 23:00N 39°15' W 076°34'2 4.2
2018-Aug-12 22:30N 39°13' W 076°32'3 5.2
2018-Aug-12 22:00N 39°15' W 076°34'0 0.0
2018-Aug-12 21:30N 39°15' W 076°34'0 0.0
2018-Aug-12 21:00N 39°15' W 076°34'0 0.0
2018-Aug-12 20:30N 39°15' W 076°34'0 0.0
2018-Aug-12 20:01N 39°15' W 076°34'0 0.3
2018-Aug-12 19:30N 39°16' W 076°34'0 0.1
2018-Aug-12 19:00N 39°15' W 076°34'0 0.9
2018-Aug-12 18:30N 39°16' W 076°34'0 0.0
2018-Aug-12 18:00N 39°16' W 076°34'0 0.0
2018-Aug-12 17:30N 39°16' W 076°34'0 0.0
2018-Aug-12 17:00N 39°16' W 076°34'0 0.0
2018-Aug-12 16:30N 39°16' W 076°34'0 0.0
2018-Aug-12 16:00N 39°16' W 076°34'0 0.1
2018-Aug-12 15:31N 39°16' W 076°34'0 0.0
2018-Aug-12 15:00N 39°16' W 076°34'0 0.0
2018-Aug-12 14:30N 39°16' W 076°34'0 0.0
2018-Aug-12 14:01N 39°16' W 076°34'0 0.0
2018-Aug-12 13:30N 39°16' W 076°34'0 0.0
2018-Aug-12 13:00N 39°16' W 076°34'0 0.0
2018-Aug-12 12:31N 39°16' W 076°34'0 0.0
2018-Aug-12 12:00N 39°16' W 076°34'0 0.0
2018-Aug-12 11:30N 39°16' W 076°34'0 0.0
2018-Aug-12 11:00N 39°16' W 076°34'0 0.0
2018-Aug-12 10:30N 39°16' W 076°34'0 0.0
2018-Aug-12 10:00N 39°16' W 076°34'0 0.0
2018-Aug-12 09:30N 39°16' W 076°34'0 0.0
2018-Aug-12 09:00N 39°16' W 076°34'0 0.0
2018-Aug-12 08:30N 39°16' W 076°34'0 0.0
2018-Aug-12 08:00N 39°16' W 076°34'0 0.0
2018-Aug-12 07:30N 39°16' W 076°34'0 0.0
2018-Aug-12 07:00N 39°16' W 076°34'0 0.0
2018-Aug-12 06:29N 39°16' W 076°34'0 0.0
2018-Aug-12 05:58N 39°16' W 076°34'0 0.0
2018-Aug-12 05:30N 39°16' W 076°34'0 0.0
2018-Aug-12 05:00N 39°16' W 076°34'0 0.0
2018-Aug-12 04:30N 39°16' W 076°34'1 1.6
2018-Aug-12 04:00N 39°15' W 076°34'1 1.3
2018-Aug-12 03:29N 39°15' W 076°33'0 0.1
2018-Aug-12 03:00N 39°15' W 076°33'0 0.1
2018-Aug-12 02:30N 39°15' W 076°33'1 0.9
2018-Aug-12 00:55N 39°16' W 076°34'0 0.0
2018-Aug-11 23:57N 39°16' W 076°34'0 0.0
2018-Aug-11 23:30N 39°16' W 076°34'0 0.0
2018-Aug-11 22:38N 39°16' W 076°34'1 6.7
2018-Aug-11 22:30N 39°15' W 076°34'1 1.8
2018-Aug-11 22:00N 39°15' W 076°33'1 2.7
2018-Aug-11 21:30N 39°16' W 076°34'0 0.8
2018-Aug-11 21:01N 39°16' W 076°34'0 0.0
2018-Aug-11 20:30N 39°16' W 076°34'0 0.0
2018-Aug-11 20:00N 39°16' W 076°34'0 0.0
2018-Aug-11 19:31N 39°16' W 076°34'0 0.0
2018-Aug-11 19:00N 39°16' W 076°34'0 0.0
2018-Aug-11 18:31N 39°16' W 076°34'0 0.0
2018-Aug-11 18:01N 39°16' W 076°34'0 0.0
2018-Aug-11 17:31N 39°16' W 076°34'0 0.0
2018-Aug-11 17:01N 39°16' W 076°34'0 0.0
2018-Aug-11 16:30N 39°16' W 076°34'0 0.0
2018-Aug-11 16:00N 39°16' W 076°34'0 0.0
2018-Aug-11 15:31N 39°16' W 076°34'0 0.0
2018-Aug-11 15:00N 39°16' W 076°34'0 0.0
2018-Aug-11 14:31N 39°16' W 076°34'0 0.0
2018-Aug-11 14:00N 39°16' W 076°34'0 0.0
2018-Aug-11 13:29N 39°16' W 076°34'0 0.0
2018-Aug-11 12:59N 39°16' W 076°34'0 0.0
2018-Aug-11 12:30N 39°16' W 076°34'0 0.0
2018-Aug-11 12:00N 39°16' W 076°34'1 1.1
2018-Aug-11 11:30N 39°15' W 076°34'1 2.6
2018-Aug-11 11:00N 39°15' W 076°33'0 0.5
2018-Aug-11 10:30N 39°15' W 076°32'0 0.0
2018-Aug-11 10:00N 39°15' W 076°32'1 2.3
2018-Aug-11 09:30N 39°15' W 076°33'1 2.0
2018-Aug-11 09:00N 39°14' W 076°33'1 2.0
2018-Aug-11 08:30N 39°14' W 076°32'0 0.0
2018-Aug-11 08:00N 39°14' W 076°32'0 0.6
2018-Aug-11 07:30N 39°15' W 076°32'1 1.4
2018-Aug-11 07:00N 39°14' W 076°32'1 1.1
2018-Aug-11 06:30N 39°14' W 076°32'1 1.3
2018-Aug-11 06:00N 39°14' W 076°33'2 4.0
2018-Aug-11 05:30N 39°15' W 076°35'2 3.8
2018-Aug-11 05:00N 39°13' W 076°34'1 2.0
2018-Aug-11 04:25N 39°13' W 076°35'0 0.0
2018-Aug-11 03:59N 39°13' W 076°35'2 5.2
2018-Aug-11 03:30N 39°15' W 076°34'1 1.9
2018-Aug-11 02:59N 39°16' W 076°34'0 0.0
2018-Aug-11 02:30N 39°16' W 076°34'0 0.0
2018-Aug-11 01:59N 39°16' W 076°34'0 0.0
2018-Aug-11 01:29N 39°16' W 076°34'0 0.0
2018-Aug-11 01:00N 39°16' W 076°34'0 0.0
2018-Aug-11 00:30N 39°16' W 076°34'0 0.0
2018-Aug-11 00:00N 39°16' W 076°34'0 0.0
2018-Aug-10 23:28N 39°16' W 076°34'0 0.0
2018-Aug-10 23:00N 39°16' W 076°34'0 0.0
2018-Aug-10 22:30N 39°16' W 076°34'0 0.0
2018-Aug-10 22:00N 39°16' W 076°34'0 0.0
2018-Aug-10 21:30N 39°16' W 076°34'0 0.0
2018-Aug-10 21:00N 39°16' W 076°34'0 0.0
2018-Aug-10 20:30N 39°16' W 076°34'1 2.7
2018-Aug-10 20:00N 39°15' W 076°34'0 0.1
2018-Aug-10 19:31N 39°15' W 076°34'1 1.4
2018-Aug-10 19:00N 39°15' W 076°34'0 0.7
2018-Aug-10 18:30N 39°16' W 076°34'1 1.5
2018-Aug-10 18:00N 39°15' W 076°34'2 4.2
2018-Aug-10 17:30N 39°13' W 076°32'1 2.8
2018-Aug-10 17:00N 39°14' W 076°33'2 3.8
2018-Aug-10 16:30N 39°16' W 076°34'0 0.0
2018-Aug-10 16:00N 39°16' W 076°34'0 0.0
2018-Aug-10 15:30N 39°16' W 076°34'1 1.0
2018-Aug-10 15:01N 39°15' W 076°34'0 0.2
2018-Aug-10 14:30N 39°16' W 076°34'0 0.0
2018-Aug-10 14:00N 39°16' W 076°34'0 0.9
2018-Aug-10 13:30N 39°16' W 076°34'0 0.0
2018-Aug-10 12:59N 39°16' W 076°34'0 0.0
2018-Aug-10 12:30N 39°16' W 076°34'0 0.0
2018-Aug-10 12:00N 39°16' W 076°34'0 0.0
2018-Aug-10 11:30N 39°16' W 076°34'0 0.0
2018-Aug-10 11:00N 39°16' W 076°34'0 0.0
2018-Aug-10 10:30N 39°16' W 076°34'1 2.5
2018-Aug-10 10:00N 39°15' W 076°33'0 0.9
2018-Aug-10 09:30N 39°15' W 076°33'2 3.6
2018-Aug-10 09:00N 39°13' W 076°32'2 4.9
2018-Aug-10 08:31N 39°15' W 076°34'1 2.0
2018-Aug-10 08:00N 39°16' W 076°34'0 0.0
2018-Aug-10 07:30N 39°16' W 076°34'0 0.0
2018-Aug-10 07:00N 39°16' W 076°34'0 0.0
2018-Aug-10 06:30N 39°16' W 076°34'0 0.0
2018-Aug-10 06:01N 39°16' W 076°34'0 0.0
2018-Aug-10 05:29N 39°16' W 076°34'0 0.0
2018-Aug-10 05:00N 39°16' W 076°34'0 0.0
2018-Aug-10 04:30N 39°16' W 076°34'0 0.0
2018-Aug-10 04:00N 39°16' W 076°34'0 0.0
2018-Aug-10 03:31N 39°16' W 076°34'0 0.0
2018-Aug-10 03:00N 39°16' W 076°34'0 0.0
2018-Aug-10 02:30N 39°16' W 076°34'0 0.0
2018-Aug-10 02:00N 39°16' W 076°34'0 0.0
2018-Aug-10 01:30N 39°16' W 076°34'0 0.0
2018-Aug-10 01:00N 39°16' W 076°34'0 0.0
2018-Aug-10 00:30N 39°16' W 076°34'0 0.0
2018-Aug-10 00:01N 39°16' W 076°34'0 0.0
2018-Aug-09 23:30N 39°16' W 076°34'0 0.0
2018-Aug-09 22:59N 39°16' W 076°34'0 0.0
2018-Aug-09 22:31N 39°16' W 076°34'0 0.0
2018-Aug-09 22:00N 39°16' W 076°34'0 0.0
2018-Aug-09 21:29N 39°16' W 076°34'0 0.0
2018-Aug-09 21:00N 39°16' W 076°34'0 0.0
2018-Aug-09 20:30N 39°16' W 076°34'0 0.0
2018-Aug-09 20:01N 39°16' W 076°34'0 0.0
2018-Aug-09 19:31N 39°16' W 076°34'0 0.0
2018-Aug-09 19:00N 39°16' W 076°34'0 0.0
2018-Aug-09 18:31N 39°16' W 076°34'0 0.0
2018-Aug-09 18:00N 39°16' W 076°34'0 0.0
2018-Aug-09 17:30N 39°16' W 076°34'0 0.0
2018-Aug-09 17:01N 39°16' W 076°34'0 0.0
2018-Aug-09 16:30N 39°16' W 076°34'0 0.0
2018-Aug-09 16:00N 39°16' W 076°34'0 0.0
2018-Aug-09 15:30N 39°16' W 076°34'0 0.0
2018-Aug-09 15:00N 39°16' W 076°34'0 0.0
2018-Aug-09 14:30N 39°16' W 076°34'0 0.0
2018-Aug-09 14:00N 39°16' W 076°34'0 0.0
2018-Aug-09 13:27N 39°16' W 076°34'2 5.3
2018-Aug-09 13:00N 39°14' W 076°32'2 3.3
2018-Aug-09 12:30N 39°15' W 076°34'1 1.6
2018-Aug-09 12:00N 39°16' W 076°34'0 0.0
2018-Aug-09 11:30N 39°16' W 076°34'0 0.0
2018-Aug-09 10:28N 39°16' W 076°34'0 0.0
2018-Aug-09 09:56N 39°16' W 076°34'0 0.0
2018-Aug-09 09:30N 39°16' W 076°34'0 0.3
2018-Aug-09 09:00N 39°16' W 076°34'2 4.1
2018-Aug-09 08:30N 39°15' W 076°32'1 2.7
2018-Aug-09 08:00N 39°13' W 076°32'1 2.3
2018-Aug-09 07:30N 39°14' W 076°32'0 0.0
2018-Aug-09 07:00N 39°14' W 076°32'0 0.0
2018-Aug-09 06:30N 39°14' W 076°32'0 0.0
2018-Aug-09 06:00N 39°14' W 076°32'0 0.0
2018-Aug-09 05:30N 39°14' W 076°32'0 0.0
2018-Aug-09 05:00N 39°14' W 076°32'0 0.0
2018-Aug-09 04:30N 39°14' W 076°32'0 0.0
2018-Aug-09 04:00N 39°14' W 076°32'1 1.6
2018-Aug-09 03:30N 39°15' W 076°33'1 1.8
2018-Aug-09 03:00N 39°15' W 076°34'1 2.0
2018-Aug-09 02:31N 39°14' W 076°33'0 0.6
2018-Aug-09 02:00N 39°14' W 076°33'2 4.8
2018-Aug-09 01:30N 39°16' W 076°34'0 0.0
2018-Aug-09 00:51N 39°16' W 076°34'0 0.0
2018-Aug-09 00:30N 39°16' W 076°34'0 0.0
2018-Aug-08 23:59N 39°16' W 076°34'0 0.0
2018-Aug-08 23:26N 39°16' W 076°34'0 0.0
2018-Aug-08 23:00N 39°16' W 076°34'0 0.0
2018-Aug-08 22:30N 39°16' W 076°34'0 0.0
2018-Aug-08 22:00N 39°16' W 076°34'0 0.0
2018-Aug-08 21:30N 39°16' W 076°34'2 3.4
2018-Aug-08 21:00N 39°15' W 076°32'1 1.1
2018-Aug-08 20:30N 39°15' W 076°32'1 2.4
2018-Aug-08 20:00N 39°15' W 076°34'1 2.1
2018-Aug-08 19:30N 39°16' W 076°34'0 0.6
2018-Aug-08 18:56N 39°16' W 076°34'0 0.0
2018-Aug-08 18:30N 39°16' W 076°34'0 0.0
2018-Aug-08 18:00N 39°16' W 076°34'0 0.0
2018-Aug-08 17:30N 39°16' W 076°34'0 0.0
2018-Aug-08 16:59N 39°16' W 076°34'0 0.0
2018-Aug-08 16:30N 39°16' W 076°34'0 0.0
2018-Aug-08 16:00N 39°16' W 076°34'0 0.0
2018-Aug-08 15:30N 39°16' W 076°34'0 0.0
2018-Aug-08 15:00N 39°16' W 076°34'0 0.0
2018-Aug-08 14:30N 39°16' W 076°34'0 0.0
2018-Aug-08 14:00N 39°16' W 076°34'0 0.0
2018-Aug-08 13:30N 39°16' W 076°34'0 0.0
2018-Aug-08 13:00N 39°16' W 076°34'0 0.0
2018-Aug-08 12:30N 39°16' W 076°34'0 0.0
2018-Aug-08 12:00N 39°16' W 076°34'0 0.0
2018-Aug-08 11:30N 39°16' W 076°34'0 0.0
2018-Aug-08 11:00N 39°16' W 076°34'0 0.0
2018-Aug-08 10:31N 39°16' W 076°34'0 0.0
2018-Aug-08 10:00N 39°16' W 076°34'0 0.0
2018-Aug-08 09:30N 39°16' W 076°34'0 0.0
2018-Aug-08 09:00N 39°16' W 076°34'1 2.7
2018-Aug-08 08:30N 39°15' W 076°34'0 0.8
2018-Aug-08 08:00N 39°15' W 076°33'1 1.2
2018-Aug-08 07:30N 39°15' W 076°34'1 1.5
2018-Aug-08 07:00N 39°15' W 076°33'0 0.1
2018-Aug-08 06:30N 39°15' W 076°33'1 2.1
2018-Aug-08 06:00N 39°16' W 076°34'1 1.7
2018-Aug-08 05:30N 39°15' W 076°34'2 3.9
2018-Aug-08 05:00N 39°13' W 076°32'3 5.3
2018-Aug-08 04:30N 39°15' W 076°34'0 0.0
2018-Aug-08 04:00N 39°15' W 076°34'0 0.0
2018-Aug-08 03:30N 39°15' W 076°34'0 0.0
2018-Aug-08 03:00N 39°15' W 076°34'0 0.0
2018-Aug-08 02:30N 39°15' W 076°34'0 0.3
2018-Aug-08 02:00N 39°15' W 076°34'0 0.5
2018-Aug-08 01:30N 39°16' W 076°34'0 0.9
2018-Aug-08 01:00N 39°16' W 076°34'0 0.0
2018-Aug-08 00:20N 39°16' W 076°34'0 0.0
2018-Aug-08 00:00N 39°16' W 076°34'0 0.0
2018-Aug-07 23:30N 39°16' W 076°34'0 0.0
2018-Aug-07 23:00N 39°16' W 076°34'1 1.8
2018-Aug-07 22:30N 39°15' W 076°34'1 1.1
2018-Aug-07 22:00N 39°15' W 076°33'1 2.4
2018-Aug-07 21:30N 39°16' W 076°34'0 0.0
2018-Aug-07 21:00N 39°16' W 076°34'0 0.0
2018-Aug-07 20:31N 39°16' W 076°34'0 0.0
2018-Aug-07 20:01N 39°16' W 076°34'0 0.0
2018-Aug-07 19:31N 39°16' W 076°34'0 0.0
2018-Aug-07 19:00N 39°16' W 076°34'0 0.0
2018-Aug-07 18:31N 39°16' W 076°34'0 0.0
2018-Aug-07 18:01N 39°16' W 076°34'0 0.0
2018-Aug-07 17:30N 39°16' W 076°34'2 3.0
2018-Aug-07 17:00N 39°15' W 076°33'1 1.5
2018-Aug-07 16:30N 39°15' W 076°34'1 1.9
2018-Aug-07 16:01N 39°16' W 076°34'0 0.0
2018-Aug-07 15:31N 39°16' W 076°34'0 0.0
2018-Aug-07 15:00N 39°16' W 076°34'1 1.7
2018-Aug-07 14:30N 39°15' W 076°34'0 0.7
2018-Aug-07 14:01N 39°16' W 076°33'0 0.9
2018-Aug-07 13:31N 39°15' W 076°34'2 4.1
2018-Aug-07 13:00N 39°14' W 076°32'1 2.5
2018-Aug-07 12:31N 39°15' W 076°32'0 0.0
2018-Aug-07 12:00N 39°15' W 076°32'0 0.0
2018-Aug-07 11:30N 39°15' W 076°32'0 0.0
2018-Aug-07 11:01N 39°15' W 076°32'0 0.0
2018-Aug-07 10:30N 39°15' W 076°32'0 0.0
2018-Aug-07 10:00N 39°15' W 076°32'1 1.3
2018-Aug-07 09:30N 39°15' W 076°33'0 0.0
2018-Aug-07 09:00N 39°15' W 076°33'1 1.9
2018-Aug-07 08:31N 39°14' W 076°33'1 2.9
2018-Aug-07 08:01N 39°13' W 076°32'2 3.2
2018-Aug-07 07:30N 39°15' W 076°33'0 0.1
2018-Aug-07 07:01N 39°14' W 076°33'1 1.8
2018-Aug-07 06:30N 39°14' W 076°32'1 1.6
2018-Aug-07 06:01N 39°14' W 076°32'0 0.0
2018-Aug-07 05:30N 39°14' W 076°32'0 0.0
2018-Aug-07 05:00N 39°14' W 076°32'0 0.0
2018-Aug-07 04:30N 39°14' W 076°32'0 0.2
2018-Aug-07 04:01N 39°14' W 076°32'0 0.6
2018-Aug-07 03:31N 39°15' W 076°32'2 3.7
2018-Aug-07 02:59N 39°16' W 076°34'0 0.0
2018-Aug-07 02:30N 39°16' W 076°34'0 0.0
2018-Aug-07 01:59N 39°16' W 076°34'0 0.0
2018-Aug-07 01:30N 39°16' W 076°34'0 0.0
2018-Aug-07 01:01N 39°16' W 076°34'0 0.0
2018-Aug-07 00:30N 39°16' W 076°34'0 0.0
2018-Aug-07 00:00N 39°16' W 076°34'0 0.0
2018-Aug-06 23:30N 39°16' W 076°34'0 0.0
2018-Aug-06 23:01N 39°16' W 076°34'0 0.0
2018-Aug-06 22:31N 39°16' W 076°34'0 0.0
2018-Aug-06 22:00N 39°16' W 076°34'0 0.0
2018-Aug-06 21:30N 39°16' W 076°34'0 0.0
2018-Aug-06 21:01N 39°16' W 076°34'0 0.0
2018-Aug-06 20:30N 39°16' W 076°34'1 1.1
2018-Aug-06 20:01N 39°15' W 076°34'1 1.7
2018-Aug-06 19:31N 39°15' W 076°34'1 2.7
2018-Aug-06 19:01N 39°16' W 076°34'0 0.0
2018-Aug-06 18:30N 39°16' W 076°34'0 0.0
2018-Aug-06 18:01N 39°16' W 076°34'0 0.0
2018-Aug-06 17:30N 39°16' W 076°34'0 0.0
2018-Aug-06 17:01N 39°16' W 076°34'0 0.0
2018-Aug-06 16:31N 39°16' W 076°34'0 0.0
2018-Aug-06 16:01N 39°16' W 076°34'0 0.0
2018-Aug-06 15:30N 39°16' W 076°34'0 0.0
2018-Aug-06 15:00N 39°16' W 076°34'0 0.0
2018-Aug-06 14:30N 39°16' W 076°34'0 0.0
2018-Aug-06 14:01N 39°16' W 076°34'0 0.0
2018-Aug-06 13:31N 39°16' W 076°34'0 0.0
2018-Aug-06 13:01N 39°16' W 076°34'0 0.0
2018-Aug-06 12:31N 39°16' W 076°34'0 0.0
2018-Aug-06 12:01N 39°16' W 076°34'0 0.0
2018-Aug-06 11:31N 39°16' W 076°34'1 3.0
2018-Aug-06 11:01N 39°15' W 076°33'0 0.8
2018-Aug-06 10:31N 39°15' W 076°32'1 2.4
2018-Aug-06 10:01N 39°14' W 076°32'1 1.0
2018-Aug-06 09:31N 39°14' W 076°32'1 1.4
2018-Aug-06 09:01N 39°13' W 076°32'  

Dump ship's entire track history